• Join FlightAware (Why Join?)
  • Login
  • US Flag 
08:27AM EDT


 

Airport Tracker/Info


-or-


 

Live Flight TrackerFlight Track Log ✈ N6UB ✈ 19-Sep-2013 ✈ KMOT - KAPA

Flight Track Log - Related Links

Times and Time Zones

All times are in EDT time to prevent confusion due to time zone crossing. See the N6UB flight status page for this flight to view local times or setup timezone preferences in your user account.

Time Position Orientation Groundspeed Altitude Reporting Facility
EDT Latitude Longitude Course Direction KTS MPH feet Rate Location/Type
04:58PM 48.3189 -101.4464 199° South 230 265 8,700  Level Minneapolis Center
04:59PM 48.2614 -101.4931 208° Southwest 232 267 11,100 2,460 Climbing Minneapolis Center
05:00PM 48.1811 -101.5219 193° South 237 273 13,900 2,400 Climbing Minneapolis Center
05:01PM 48.1117 -101.5506 195° South 249 287 16,100 1,980 Climbing Minneapolis Center
05:02PM 47.7682 -101.5111 197° South  Level Estimated
05:02PM 48.0442 -101.5800 196° South 252 290 18,000  Level Minneapolis Center
05:03PM 47.6863 -101.5481 197° South  Level FlightAware Approximate
05:03PM 47.9786 -101.6128 199° South 250 288 19,600  Level Minneapolis Center
05:04PM 47.6047 -101.5864 199° South  Level Estimated
05:04PM 47.9028 -101.6250 186° South 263 303 21,100  Level Minneapolis Center
05:05PM 47.8253 -101.6311 183° South 272 313 22,500 1,740 Climbing Minneapolis Center
05:07PM 47.7292 -101.6419 184° South 282 325 24,700 1,860 Climbing Minneapolis Center
05:08PM 47.6567 -101.6639 192° South 278 320 26,400 1,680 Climbing Minneapolis Center
05:09PM 47.5942 -101.6947 198° South 255 293 28,200 1,560 Climbing Minneapolis Center
05:10PM 47.5350 -101.7200 196° South 236 272 29,700 1,200 Climbing Minneapolis Center
05:11PM 47.4794 -101.7447 197° South 220 253 30,700 720 Climbing Minneapolis Center
05:12PM 47.4075 -101.7603 188° South 217 250 31,300 420 Climbing Minneapolis Center
05:13PM 47.3386 -101.7792 191° South 240 276 31,600 300 Climbing Minneapolis Center
05:14PM 47.2706 -101.7925 188° South 247 284 32,000 480 Climbing Minneapolis Center
05:15PM 47.2022 -101.8103 190° South 249 287 32,600 660 Climbing Minneapolis Center
05:16PM 47.1356 -101.8267 189° South 247 284 33,400 660 Climbing Minneapolis Center
05:17PM 47.0700 -101.8408 188° South 241 277 34,000 540 Climbing Minneapolis Center
05:18PM 46.9917 -101.8589 189° South 239 275 34,600 420 Climbing Minneapolis Center
05:19PM 46.9247 -101.8739 189° South 241 277 34,900 300 Climbing Minneapolis Center
05:20PM 46.8564 -101.8906 189° South 246 283 35,300 360 Climbing Minneapolis Center
05:21PM 46.7872 -101.9050 188° South 250 288 35,700 300 Climbing Minneapolis Center
05:22PM 46.7183 -101.9206 189° South 250 288 36,000 120 Climbing Minneapolis Center
05:23PM 46.6453 -101.9378 189° South 258 297 36,000  Level Minneapolis Center
05:24PM 46.5558 -101.9567 188° South 268 308 36,000  Level Minneapolis Center
05:25PM 46.4775 -101.9764 190° South 278 320 36,000  Level Minneapolis Center
05:26PM 46.3986 -101.9942 189° South 285 328 36,000  Level Minneapolis Center
05:27PM 46.3172 -102.0111 188° South 290 334 36,000  Level Minneapolis Center
05:28PM 46.2344 -102.0319 190° South 297 342 36,000  Level Minneapolis Center
05:29PM 46.1361 -102.0558 190° South 300 345 36,000  Level Minneapolis Center
05:30PM 46.0564 -102.0731 189° South 296 341 36,000  Level Minneapolis Center
05:31PM 45.9758 -102.0897 188° South 294 338 36,000  Level Minneapolis Center
05:32PM 45.8944 -102.1092 189° South 296 341 36,000  Level Minneapolis Center
05:33PM 45.8133 -102.1269 189° South 296 341 36,000  Level Minneapolis Center
05:34PM 45.7300 -102.1461 189° South 300 345 36,000  Level Minneapolis Center
05:36PM 45.6317 -102.1681 189° South 299 344 36,000  Level Minneapolis Center
05:37PM 45.5481 -102.1861 189° South 302 348 36,000  Level Minneapolis Center
05:38PM 45.4667 -102.2047 189° South 300 345 36,000  Level Minneapolis Center
05:39PM 45.3831 -102.2222 188° South 302 348 36,000  Level Minneapolis Center
05:40PM 45.3014 -102.2408 189° South 300 345 36,000  Level Minneapolis Center
05:41PM 45.2178 -102.2594 189° South 303 349 36,000  Level Minneapolis Center
05:42PM 45.1181 -102.2803 188° South 303 349 36,000  Level Minneapolis Center
05:43PM 45.0317 -102.3000 189° South 310 357 36,000  Level Minneapolis Center
05:44PM 44.9475 -102.3178 189° South 309 356 36,000  Level Minneapolis Center
05:45PM 44.8631 -102.3361 189° South 309 356 36,000  Level Minneapolis Center
05:46PM 44.7789 -102.3539 189° South 308 354 36,000  Level Minneapolis Center
05:47PM 44.6764 -102.3747 188° South 309 356 36,000  Level Minneapolis Center
05:48PM 44.5914 -102.3933 189° South 310 357 36,000  Level Minneapolis Center
05:49PM 44.5064 -102.4122 189° South 310 357 36,000  Level Minneapolis Center
05:50PM 44.4208 -102.4308 189° South 310 357 36,000  Level Minneapolis Center
05:51PM 44.3367 -102.4489 189° South 309 356 36,000  Level Minneapolis Center
05:52PM 44.2514 -102.4667 188° South 309 356 36,000  Level Minneapolis Center
05:53PM 44.1489 -102.4875 188° South 310 357 36,000  Level Minneapolis Center
05:54PM 44.0636 -102.5064 189° South 310 357 36,000  Level Minneapolis Center
05:55PM 43.9800 -102.5231 188° South 309 356 36,000  Level Minneapolis Center
05:56PM 43.8953 -102.5397 188° South 307 353 36,000  Level Minneapolis Center
05:57PM 43.8114 -102.5575 189° South 307 353 36,000  Level Minneapolis Center
05:58PM 43.7261 -102.5753 189° South 307 353 36,000  Level Minneapolis Center
05:59PM 43.6256 -102.5950 188° South 307 353 36,000  Level Minneapolis Center
06:00PM 43.5417 -102.6114 188° South 306 352 36,000  Level Minneapolis Center
06:02PM 43.4250 -102.6375 189° South 298 343 36,000  Level Denver Center
06:03PM 43.3439 -102.6531 188° South 305 351 36,000  Level Denver Center
06:04PM 43.2650 -102.6683 188° South 300 345 36,000  Level Denver Center
06:05PM 43.1725 -102.6889 189° South 303 349 36,000  Level Denver Center
06:06PM 43.0928 -102.7053 189° South 302 348 36,000  Level Denver Center
06:07PM 43.0000 -102.7231 188° South 303 349 36,000  Level Denver Center
06:08PM 42.9194 -102.7394 188° South 304 350 36,000  Level Denver Center
06:09PM 42.8247 -102.7597 189° South 307 353 36,000  Level Denver Center
06:10PM 42.7433 -102.7744 188° South 308 354 36,000  Level Denver Center
06:11PM 42.6497 -102.7942 189° South 304 350 36,000  Level Denver Center
06:12PM 42.5692 -102.8108 189° South 305 351 36,000  Level Denver Center
06:13PM 42.4781 -102.8272 188° South 298 343 36,000  Level Denver Center
06:14PM 42.3969 -102.8442 189° South 304 350 36,000  Level Denver Center
06:15PM 42.3025 -102.8631 188° South 305 351 36,000  Level Denver Center
06:16PM 42.2200 -102.8797 189° South 310 357 36,000 -1,200 Level Denver Center
06:17PM 42.1328 -102.8975 189° South 326 375 33,600 -1,980 Descending Denver Center
06:18PM 42.0264 -102.9186 188° South 342 394 32,000 -780 Descending Denver Center
06:19PM 41.9433 -102.9353 188° South 322 371 32,000  Level Denver Center
06:20PM 41.8461 -102.9525 188° South 315 362 32,000  Level Denver Center
06:21PM 41.7628 -102.9706 189° South 316 364 32,000  Level Denver Center
06:22PM 41.6661 -102.9886 188° South 315 362 32,000  Level Denver Center
06:23PM 41.5814 -103.0053 188° South 318 366 32,000  Level Denver Center
06:25PM 41.4847 -103.0244 188° South 316 364 32,000  Level Denver Center
06:26PM 41.4025 -103.0408 189° South 313 360 32,000  Level Denver Center
06:27PM 41.3064 -103.0583 188° South 313 360 32,000  Level Denver Center
06:28PM 41.2247 -103.0733 188° South 310 357 32,000  Level Denver Center
06:29PM 41.1428 -103.0906 189° South 311 358 32,000 -540 Level Denver Center
06:30PM 41.0461 -103.1083 188° South 314 361 31,000 -1,020 Descending Denver Center
06:31PM 40.9439 -103.1278 188° South 335 386 29,900 -1,140 Descending Denver Center
06:32PM 40.8489 -103.1461 188° South 343 395 28,700 -1,080 Descending Denver Center
06:33PM 40.7528 -103.1633 188° South 347 399 27,800 -840 Descending Denver Center
06:34PM 40.6581 -103.1858 190° South 346 398 27,000 -1,200 Descending Denver Center
06:35PM 40.5881 -103.2581 218° Southwest 324 373 25,400 -1,500 Descending Denver Center
06:36PM 40.5308 -103.3467 230° Southwest 320 368 23,900 -1,260 Descending Denver Center
06:37PM 40.4736 -103.4344 229° Southwest 316 364 22,900 -1,200 Descending Denver Center
06:38PM 40.4067 -103.5389 230° Southwest 313 360 21,500 -1,260 Descending Denver Center
06:39PM 40.3489 -103.6244 228° Southwest 314 361 20,400 -1,020 Descending Denver Center
06:40PM 40.2969 -103.7081 231° Southwest 298 343 19,500 -720 Descending Denver Center
06:41PM 40.2433 -103.7897 229° Southwest 269 310 19,000 -300 Descending Denver Center
06:42PM 40.1969 -103.8628 230° Southwest 262 302 19,000 -360 Level Denver Center
06:43PM 40.1592 -103.9458 239° Southwest 267 307 18,300 -780 Descending Denver Center
06:44PM 40.1150 -104.0386 238° Southwest 281 323 17,400 -900 Descending Denver Center
06:45PM 40.0719 -104.1275 238° Southwest 290 334 16,500 -780 Descending Denver Center
06:46PM 40.0275 -104.2186 238° Southwest 277 319 15,900 -840 Descending Denver Center
06:47PM 39.9886 -104.3011 238° Southwest 267 307 14,800 -1,020 Descending Denver Center
06:48PM 39.9522 -104.3728 236° Southwest 241 277 13,800 -1,080 Descending Denver Center
06:49PM 39.9278 -104.4647 251° West 247 284 12,700 -960 Descending Denver Center
06:50PM 39.9167 -104.5333 258° West 252 290 12,100 -660 Descending Denver TRACON
06:51PM 39.9167 -104.6167 270° West 248 285 11,600 -600 Descending Denver TRACON
06:52PM 39.9000 -104.7167 258° West 263 303 11,000 -300 Descending Denver TRACON
06:53PM 39.8500 -104.7833 226° Southwest 259 298 11,000  Level Denver TRACON
06:54PM 39.7833 -104.8000 191° South 251 289 11,000 -600 Level Denver TRACON
06:55PM 39.7167 -104.8000 180° South 209 241 9,800 -1,320 Descending Denver TRACON
06:56PM 39.6667 -104.8167 194° South 202 232 8,300 -1,380 Descending Denver TRACON
06:57PM 39.6167 -104.8167 180° South 200 230 7,200 -660 Descending Denver TRACON
06:58PM 39.5500 -104.8167 180° South 187 215 7,100 -360 Descending Denver TRACON
06:59PM 39.5333 -104.8500 237° Southwest 187 215 6,500 -600 Descending Denver TRACON
07:02PM 39.5667 -104.8333 21° North  Level FlightAware Approximate